Time;durP1;ratioP1;P1;durP2;ratioP2;P2;SDS_P1;SDS_P2;PMS_P1;PMS_P2;Temp;Humidity;BMP_temperature;BMP_pressure;BME280_temperature;BME280_humidity;BME280_pressure;Samples;Min_cycle;Max_cycle;Signal;HPM_P1;HPM_P2
2023/01/13 00:00:20;;;;;;;1.55;0.65;;;;;;;;;;5015005;28;20037;-84
2023/01/13 00:02:46;;;;;;;1.10;0.47;;;;;;;;;;5013207;28;20533;-83
2023/01/13 00:05:12;;;;;;;3.03;0.93;;;;;;;;;;5011867;28;20033;-85
2023/01/13 00:07:39;;;;;;;1.00;0.50;;;;;;;;;;5012084;28;20033;-83
2023/01/13 00:10:07;;;;;;;2.67;0.65;;;;;;;;;;5034363;28;20067;-85
2023/01/13 00:12:32;;;;;;;1.50;0.57;;;;;;;;;;5043738;28;20091;-84
2023/01/13 00:14:58;;;;;;;1.38;0.60;;;;;;;;;;5033728;28;20049;-82
2023/01/13 00:17:23;;;;;;;1.67;0.50;;;;;;;;;;5033248;28;20029;-85
2023/01/13 00:19:49;;;;;;;1.25;0.50;;;;;;;;;;5020622;28;20433;-84
2023/01/13 00:22:14;;;;;;;1.17;0.50;;;;;;;;;;5010943;28;20148;-84
2023/01/13 00:24:39;;;;;;;0.88;0.43;;;;;;;;;;5016272;28;20029;-83
2023/01/13 00:27:25;;;;;;;1.75;0.60;;;;;;;;;;5033094;28;20050;-82
2023/01/13 00:29:53;;;;;;;0.90;0.40;;;;;;;;;;4963132;28;20035;-83
2023/01/13 00:32:18;;;;;;;1.25;0.45;;;;;;;;;;4948410;28;21186;-82
2023/01/13 00:34:44;;;;;;;1.10;0.50;;;;;;;;;;4931082;28;20043;-81
2023/01/13 00:37:11;;;;;;;1.38;0.60;;;;;;;;;;4946950;28;20097;-83
2023/01/13 00:39:37;;;;;;;1.35;0.60;;;;;;;;;;4947288;28;20074;-84
2023/01/13 00:44:47;;;;;;;0.95;0.43;;;;;;;;;;4943362;28;20082;-83
2023/01/13 00:47:12;;;;;;;1.00;0.40;;;;;;;;;;4947284;28;20082;-83
2023/01/13 00:49:38;;;;;;;1.02;0.40;;;;;;;;;;4982448;28;20477;-83
2023/01/13 00:52:03;;;;;;;1.13;0.38;;;;;;;;;;4946641;28;20147;-83
2023/01/13 00:54:29;;;;;;;1.05;0.40;;;;;;;;;;4925670;28;20123;-82
2023/01/13 00:56:54;;;;;;;0.88;0.40;;;;;;;;;;4964022;28;20516;-84
2023/01/13 00:59:20;;;;;;;0.82;0.40;;;;;;;;;;4981317;28;20346;-83
2023/01/13 01:01:45;;;;;;;1.75;0.57;;;;;;;;;;4947707;28;20446;-83
2023/01/13 01:04:11;;;;;;;0.75;0.40;;;;;;;;;;4949393;28;20039;-83
2023/01/13 01:06:39;;;;;;;1.05;0.40;;;;;;;;;;4977139;28;20716;-83
2023/01/13 01:09:05;;;;;;;2.95;0.47;;;;;;;;;;5043180;28;20036;-83
2023/01/13 01:11:31;;;;;;;1.27;0.40;;;;;;;;;;5025584;28;20040;-82
2023/01/13 01:14:01;;;;;;;1.73;0.65;;;;;;;;;;5005402;28;20056;-83
2023/01/13 01:16:28;;;;;;;1.40;0.57;;;;;;;;;;5015826;28;20033;-83
2023/01/13 01:18:55;;;;;;;1.08;0.50;;;;;;;;;;5010923;28;20048;-84
2023/01/13 01:21:22;;;;;;;1.30;0.52;;;;;;;;;;5028271;28;20037;-83
2023/01/13 01:23:47;;;;;;;1.37;0.40;;;;;;;;;;5012393;28;20072;-84
2023/01/13 01:26:18;;;;;;;1.40;0.50;;;;;;;;;;4994039;28;20321;-83
2023/01/13 01:28:43;;;;;;;1.02;0.40;;;;;;;;;;4984314;28;20041;-82
2023/01/13 01:31:21;;;;;;;0.80;0.40;;;;;;;;;;5008002;28;20033;-83
2023/01/13 01:33:46;;;;;;;;;;;;;;;;;;5005315;28;20037;-82
2023/01/13 01:36:14;;;;;;;2.47;0.50;;;;;;;;;;4991124;28;19914;-83
2023/01/13 01:38:39;;;;;;;;;;;;;;;;;;4993195;28;20549;-82
2023/01/13 01:41:05;;;;;;;0.60;0.33;;;;;;;;;;4998577;28;20008;-83
2023/01/13 01:43:58;;;;;;;1.30;0.40;;;;;;;;;;5020543;28;20352;-82
2023/01/13 01:46:41;;;;;;;0.73;0.40;;;;;;;;;;4986557;28;20045;-82
2023/01/13 01:49:09;;;;;;;0.65;0.30;;;;;;;;;;5008766;28;20504;-82
2023/01/13 01:51:42;;;;;;;1.10;0.40;;;;;;;;;;5014429;28;21045;-82
2023/01/13 01:54:10;;;;;;;0.98;0.40;;;;;;;;;;5005698;28;20411;-81
2023/01/13 01:56:36;;;;;;;0.85;0.30;;;;;;;;;;5006601;28;20033;-82
2023/01/13 01:59:01;;;;;;;0.40;0.30;;;;;;;;;;4992600;28;20045;-82
2023/01/13 02:01:27;;;;;;;3.00;0.50;;;;;;;;;;5020070;28;20518;-81
2023/01/13 02:03:58;;;;;;;0.93;0.30;;;;;;;;;;5014767;28;20041;-81
2023/01/13 02:06:24;;;;;;;1.15;0.43;;;;;;;;;;5020764;28;20064;-82
2023/01/13 02:08:51;;;;;;;0.60;0.30;;;;;;;;;;4989580;28;20449;-82
2023/01/13 02:14:26;;;;;;;1.48;0.47;;;;;;;;;;5004669;28;20056;-81
2023/01/13 02:17:13;;;;;;;0.60;0.30;;;;;;;;;;5021863;28;20124;-82
2023/01/13 02:20:04;;;;;;;0.68;0.25;;;;;;;;;;4992492;28;20385;-82
2023/01/13 02:23:03;;;;;;;0.82;0.30;;;;;;;;;;5025406;28;20492;-84
2023/01/13 02:25:47;;;;;;;0.65;0.30;;;;;;;;;;5005121;28;20041;-84
2023/01/13 02:28:21;;;;;;;0.75;0.30;;;;;;;;;;5005680;28;20523;-81
2023/01/13 02:34:07;;;;;;;0.75;0.32;;;;;;;;;;5009018;28;20045;-81
2023/01/13 02:36:43;;;;;;;1.42;0.30;;;;;;;;;;5041408;28;20175;-82
2023/01/13 02:39:25;;;;;;;0.32;0.30;;;;;;;;;;5004835;28;20450;-82
2023/01/13 02:44:58;;;;;;;0.73;0.30;;;;;;;;;;5012944;28;20049;-83
2023/01/13 02:47:25;;;;;;;0.80;0.30;;;;;;;;;;5006667;28;20045;-82
2023/01/13 02:49:57;;;;;;;0.73;0.28;;;;;;;;;;5000684;28;20045;-82
2023/01/13 02:52:46;;;;;;;1.08;0.40;;;;;;;;;;4984161;28;20122;-81
2023/01/13 02:55:27;;;;;;;1.67;0.30;;;;;;;;;;5025555;28;20071;-82
2023/01/13 02:57:53;;;;;;;0.30;0.20;;;;;;;;;;5027500;28;20733;-83
2023/01/13 03:00:19;;;;;;;0.28;0.20;;;;;;;;;;4977413;28;20041;-82
2023/01/13 03:02:47;;;;;;;0.98;0.20;;;;;;;;;;5019052;28;20061;-82
2023/01/13 03:05:14;;;;;;;1.15;0.40;;;;;;;;;;5008636;28;20088;-82
2023/01/13 03:07:47;;;;;;;0.98;0.28;;;;;;;;;;5009952;28;20037;-82
2023/01/13 03:10:46;;;;;;;1.38;0.32;;;;;;;;;;5007731;28;20035;-83
2023/01/13 03:13:49;;;;;;;0.70;0.20;;;;;;;;;;5009274;28;20174;-82
2023/01/13 03:16:37;;;;;;;1.08;0.20;;;;;;;;;;5002369;28;20046;-82
2023/01/13 03:19:14;;;;;;;1.17;0.30;;;;;;;;;;5033774;28;20067;-82
2023/01/13 03:21:42;;;;;;;1.08;0.30;;;;;;;;;;5040055;28;20040;-83
2023/01/13 03:24:21;;;;;;;0.75;0.35;;;;;;;;;;5012797;28;20489;-82
2023/01/13 03:27:00;;;;;;;0.52;0.20;;;;;;;;;;5034087;28;20032;-82
2023/01/13 03:29:49;;;;;;;1.00;0.30;;;;;;;;;;4998193;28;20494;-81
2023/01/13 03:32:21;;;;;;;0.32;0.20;;;;;;;;;;5039418;28;20033;-82
2023/01/13 03:34:53;;;;;;;0.40;0.20;;;;;;;;;;5021792;28;20040;-82
2023/01/13 03:37:21;;;;;;;0.63;0.20;;;;;;;;;;5033098;28;20067;-83
2023/01/13 03:39:52;;;;;;;0.82;0.30;;;;;;;;;;5029742;28;20049;-83
2023/01/13 03:42:24;;;;;;;0.35;0.20;;;;;;;;;;5021100;28;20526;-82
2023/01/13 03:45:14;;;;;;;1.10;0.30;;;;;;;;;;5006491;28;20040;-83
2023/01/13 03:47:52;;;;;;;0.20;0.20;;;;;;;;;;5042736;28;20427;-83
2023/01/13 03:50:19;;;;;;;;;;;;;;;;;;5041708;28;20060;-82
2023/01/13 03:52:48;;;;;;;0.47;0.20;;;;;;;;;;5018518;28;21034;-82
2023/01/13 03:55:21;;;;;;;1.48;0.32;;;;;;;;;;5013067;28;20037;-82
2023/01/13 03:57:52;;;;;;;0.73;0.30;;;;;;;;;;5012237;28;20036;-81
2023/01/13 04:00:20;;;;;;;0.47;0.20;;;;;;;;;;5042104;28;20033;-82
2023/01/13 04:02:47;;;;;;;;;;;;;;;;;;5015590;28;20082;-81
2023/01/13 04:05:13;;;;;;;0.47;0.25;;;;;;;;;;5020924;28;20363;-82
2023/01/13 04:07:39;;;;;;;0.70;0.20;;;;;;;;;;5013272;28;20064;-81
2023/01/13 04:10:07;;;;;;;0.80;0.22;;;;;;;;;;5022476;28;20476;-82
2023/01/13 04:13:01;;;;;;;1.63;0.40;;;;;;;;;;5046029;28;20684;-81
2023/01/13 04:15:38;;;;;;;0.70;0.20;;;;;;;;;;5027214;28;20038;-83
2023/01/13 04:18:15;;;;;;;0.67;0.20;;;;;;;;;;5020440;28;20049;-83
2023/01/13 04:20:43;;;;;;;1.02;0.30;;;;;;;;;;5036964;28;20040;-83
2023/01/13 04:23:08;;;;;;;;;;;;;;;;;;5012055;28;20033;-83
2023/01/13 04:25:34;;;;;;;1.05;0.38;;;;;;;;;;5048650;28;20248;-83
2023/01/13 04:28:00;;;;;;;0.55;0.30;;;;;;;;;;5019525;28;20606;-83
2023/01/13 04:30:25;;;;;;;0.90;0.30;;;;;;;;;;5001949;28;20123;-83
2023/01/13 04:32:51;;;;;;;0.52;0.22;;;;;;;;;;5033372;28;20538;-82
2023/01/13 04:35:16;;;;;;;0.52;0.20;;;;;;;;;;5032481;28;20036;-83
2023/01/13 04:37:41;;;;;;;0.85;0.30;;;;;;;;;;5022912;28;20032;-82
2023/01/13 04:40:07;;;;;;;1.27;0.20;;;;;;;;;;5045303;28;20393;-81
2023/01/13 04:42:33;;;;;;;0.45;0.20;;;;;;;;;;5029888;28;20124;-82
2023/01/13 04:44:58;;;;;;;0.63;0.28;;;;;;;;;;5022852;28;20458;-82
2023/01/13 04:47:26;;;;;;;1.63;0.30;;;;;;;;;;5026167;28;20037;-81
2023/01/13 04:49:52;;;;;;;0.77;0.30;;;;;;;;;;5013362;28;20037;-81
2023/01/13 04:52:17;;;;;;;0.50;0.25;;;;;;;;;;5025138;28;20096;-82
2023/01/13 04:54:43;;;;;;;0.60;0.25;;;;;;;;;;5018514;28;20399;-83
2023/01/13 04:57:08;;;;;;;0.63;0.20;;;;;;;;;;5043363;28;20048;-82
2023/01/13 04:59:33;;;;;;;0.50;0.20;;;;;;;;;;5049302;28;20045;-82
2023/01/13 05:01:59;;;;;;;0.73;0.30;;;;;;;;;;5012505;28;20103;-82
2023/01/13 05:04:24;;;;;;;0.45;0.20;;;;;;;;;;5056751;28;20074;-83
2023/01/13 05:06:49;;;;;;;0.22;0.13;;;;;;;;;;5014799;28;20036;-82
2023/01/13 05:09:15;;;;;;;0.30;0.20;;;;;;;;;;5029855;28;20033;-82
2023/01/13 05:17:09;;;;;;;0.73;0.20;;;;;;;;;;5058427;28;20119;-81
2023/01/13 05:19:38;;;;;;;0.40;0.20;;;;;;;;;;5011300;28;20753;-82
2023/01/13 05:27:32;;;;;;;0.30;0.20;;;;;;;;;;5026029;28;20064;-83
2023/01/13 05:29:58;;;;;;;0.40;0.20;;;;;;;;;;5044978;28;20048;-82
2023/01/13 05:32:24;;;;;;;0.20;0.20;;;;;;;;;;5029769;28;20028;-81
2023/01/13 05:34:49;;;;;;;0.65;0.20;;;;;;;;;;5014508;28;20487;-83
2023/01/13 05:37:15;;;;;;;0.50;0.28;;;;;;;;;;5008225;28;20035;-82
2023/01/13 05:45:09;;;;;;;0.57;0.20;;;;;;;;;;5035205;28;20419;-81
2023/01/13 05:47:35;;;;;;;0.45;0.20;;;;;;;;;;5018659;28;20038;-82
2023/01/13 05:50:01;;;;;;;0.60;0.30;;;;;;;;;;5021378;28;20403;-81
2023/01/13 05:52:26;;;;;;;0.70;0.20;;;;;;;;;;5040419;28;20036;-82
2023/01/13 05:55:13;;;;;;;1.65;0.32;;;;;;;;;;5006656;28;20049;-82
2023/01/13 05:57:39;;;;;;;2.33;0.30;;;;;;;;;;4959360;28;20043;-82
2023/01/13 06:00:04;;;;;;;0.52;0.30;;;;;;;;;;4946521;28;20065;-82
2023/01/13 06:02:30;;;;;;;0.40;0.20;;;;;;;;;;4944420;28;20053;-82
2023/01/13 06:04:55;;;;;;;1.33;0.35;;;;;;;;;;4939161;28;20804;-84
2023/01/13 06:07:22;;;;;;;0.70;0.30;;;;;;;;;;4945838;28;20063;-83
2023/01/13 06:09:47;;;;;;;0.80;0.20;;;;;;;;;;4946610;28;20491;-81
2023/01/13 06:12:13;;;;;;;2.08;0.43;;;;;;;;;;4960837;28;20118;-81
2023/01/13 06:14:41;;;;;;;0.75;0.30;;;;;;;;;;4961103;28;20038;-83
2023/01/13 06:17:13;;;;;;;0.73;0.30;;;;;;;;;;4943251;28;20038;-82
2023/01/13 06:19:39;;;;;;;0.50;0.30;;;;;;;;;;4961830;28;20042;-82
2023/01/13 06:22:22;;;;;;;1.15;0.20;;;;;;;;;;4960257;28;20046;-83
2023/01/13 06:24:49;;;;;;;0.70;0.30;;;;;;;;;;4959808;28;20458;-82
2023/01/13 06:27:14;;;;;;;0.82;0.28;;;;;;;;;;4960315;28;20043;-85
2023/01/13 06:29:40;;;;;;;1.25;0.40;;;;;;;;;;4946094;28;20101;-82
2023/01/13 06:32:14;;;;;;;0.52;0.22;;;;;;;;;;4942961;28;20043;-83
2023/01/13 06:34:40;;;;;;;0.75;0.22;;;;;;;;;;4985059;28;20053;-83
2023/01/13 06:37:06;;;;;;;0.32;0.20;;;;;;;;;;5046309;28;20106;-84
2023/01/13 06:39:31;;;;;;;0.43;0.20;;;;;;;;;;5025811;28;20041;-83
2023/01/13 06:44:43;;;;;;;0.50;0.20;;;;;;;;;;5029796;28;20060;-84
2023/01/13 06:47:08;;;;;;;2.88;0.73;;;;;;;;;;4999184;28;20519;-83
2023/01/13 06:49:34;;;;;;;2.15;0.60;;;;;;;;;;5028013;28;20041;-81
2023/01/13 06:51:59;;;;;;;0.40;0.20;;;;;;;;;;5000368;28;20033;-83
2023/01/13 06:54:25;;;;;;;1.05;0.30;;;;;;;;;;5045332;28;20033;-82
2023/01/13 06:56:50;;;;;;;0.45;0.20;;;;;;;;;;5010855;28;20481;-82
2023/01/13 06:59:15;;;;;;;1.15;0.30;;;;;;;;;;4999801;28;20042;-82
2023/01/13 07:01:41;;;;;;;0.50;0.20;;;;;;;;;;5020582;28;20491;-83
2023/01/13 07:04:06;;;;;;;2.50;0.22;;;;;;;;;;5004543;28;20061;-82
2023/01/13 07:06:32;;;;;;;0.73;0.30;;;;;;;;;;5006659;28;20040;-83
2023/01/13 07:08:57;;;;;;;0.80;0.22;;;;;;;;;;5024937;28;20099;-79
2023/01/13 07:11:23;;;;;;;0.70;0.20;;;;;;;;;;5024502;28;20155;-82
2023/01/13 07:16:33;;;;;;;0.90;0.25;;;;;;;;;;5056081;28;20142;-82
2023/01/13 07:18:58;;;;;;;0.40;0.25;;;;;;;;;;5010693;28;20037;-82
2023/01/13 07:21:24;;;;;;;0.43;0.20;;;;;;;;;;5009451;28;20136;-83
2023/01/13 07:23:49;;;;;;;1.13;0.30;;;;;;;;;;5023545;28;20039;-82
2023/01/13 07:26:15;;;;;;;1.60;0.20;;;;;;;;;;5006221;28;20029;-80
2023/01/13 07:28:41;;;;;;;2.42;0.65;;;;;;;;;;5017061;28;20542;-79
2023/01/13 07:31:14;;;;;;;0.60;0.25;;;;;;;;;;5011544;28;20409;-80
2023/01/13 07:33:40;;;;;;;0.60;0.20;;;;;;;;;;5007177;28;20072;-79
2023/01/13 07:36:05;;;;;;;0.25;0.13;;;;;;;;;;5012689;28;20068;-80
2023/01/13 07:38:32;;;;;;;0.55;0.30;;;;;;;;;;5010335;28;20438;-79
2023/01/13 07:43:30;;;;;;;0.32;0.20;;;;;;;;;;5007860;28;20495;-80
2023/01/13 07:43:43;;;;;;;0.75;0.32;;;;;;;;;;5022619;28;20040;-79
2023/01/13 07:46:08;;;;;;;0.38;0.20;;;;;;;;;;5018831;28;20526;-86
2023/01/13 07:48:34;;;;;;;2.05;0.40;;;;;;;;;;5029974;28;20037;-85
2023/01/13 07:51:04;;;;;;;0.47;0.20;;;;;;;;;;5029741;28;20399;-85
2023/01/13 07:53:30;;;;;;;0.68;0.30;;;;;;;;;;5004726;28;20043;-83
2023/01/13 07:55:57;;;;;;;1.45;0.32;;;;;;;;;;5032868;28;20033;-85
2023/01/13 07:58:24;;;;;;;1.67;0.47;;;;;;;;;;5004036;28;20044;-85
2023/01/13 08:00:49;;;;;;;2.25;0.30;;;;;;;;;;5027565;28;20103;-84
2023/01/13 08:03:14;;;;;;;0.57;0.20;;;;;;;;;;5014962;28;20060;-84
2023/01/13 08:05:40;;;;;;;1.10;0.30;;;;;;;;;;5013779;28;20449;-84
2023/01/13 08:08:05;;;;;;;0.57;0.20;;;;;;;;;;5017813;28;20029;-86
2023/01/13 08:10:31;;;;;;;0.47;0.20;;;;;;;;;;5021637;28;20042;-83
2023/01/13 08:15:40;;;;;;;1.17;0.30;;;;;;;;;;5025354;28;20215;-85
2023/01/13 08:18:06;;;;;;;0.35;0.22;;;;;;;;;;5033880;28;20100;-86
2023/01/13 08:20:34;;;;;;;0.20;0.20;;;;;;;;;;5023234;28;20090;-86
2023/01/13 08:22:59;;;;;;;4.30;0.57;;;;;;;;;;5056481;28;20041;-85
2023/01/13 08:25:26;;;;;;;0.73;0.22;;;;;;;;;;5012599;28;20106;-85
2023/01/13 08:27:52;;;;;;;0.73;0.23;;;;;;;;;;5004261;28;20043;-84
2023/01/13 08:30:21;;;;;;;0.30;0.20;;;;;;;;;;5013875;28;20036;-85
2023/01/13 08:32:48;;;;;;;0.30;0.20;;;;;;;;;;5025758;28;20427;-83
2023/01/13 08:35:21;;;;;;;0.60;0.30;;;;;;;;;;5020140;28;20045;-85
2023/01/13 08:37:47;;;;;;;0.50;0.20;;;;;;;;;;5020616;28;20040;-84
2023/01/13 08:40:13;;;;;;;0.45;0.10;;;;;;;;;;5027507;28;20115;-85
2023/01/13 08:42:38;;;;;;;0.85;0.30;;;;;;;;;;5018710;28;20036;-85
2023/01/13 08:45:07;;;;;;;1.10;0.30;;;;;;;;;;5015538;28;20037;-86
2023/01/13 08:47:32;;;;;;;0.90;0.32;;;;;;;;;;5010705;28;20408;-86
2023/01/13 08:49:58;;;;;;;0.98;0.40;;;;;;;;;;5010969;28;20037;-85
2023/01/13 08:52:23;;;;;;;0.45;0.22;;;;;;;;;;5025276;28;20519;-85
2023/01/13 08:54:49;;;;;;;1.63;0.30;;;;;;;;;;5020375;28;20059;-84
2023/01/13 08:57:14;;;;;;;0.30;0.20;;;;;;;;;;5010993;28;20045;-84
2023/01/13 08:59:42;;;;;;;0.77;0.30;;;;;;;;;;5016976;28;20548;-86
2023/01/13 09:02:19;;;;;;;2.88;0.80;;;;;;;;;;5015070;28;20440;-85
2023/01/13 09:04:45;;;;;;;1.20;0.32;;;;;;;;;;5042357;28;20040;-84
2023/01/13 09:07:11;;;;;;;1.90;0.30;;;;;;;;;;5019927;28;20052;-84
2023/01/13 09:09:37;;;;;;;0.65;0.30;;;;;;;;;;5018291;28;20033;-84
2023/01/13 09:14:50;;;;;;;1.30;0.73;;;;;;;;;;5036228;28;20052;-85
2023/01/13 09:17:16;;;;;;;2.25;0.40;;;;;;;;;;5042902;28;20045;-85
2023/01/13 09:19:41;;;;;;;2.58;0.50;;;;;;;;;;5019556;28;20441;-86
2023/01/13 09:22:09;;;;;;;0.98;0.30;;;;;;;;;;5025059;28;20043;-86
2023/01/13 09:24:34;;;;;;;2.70;0.50;;;;;;;;;;5031402;28;20175;-85
2023/01/13 09:27:00;;;;;;;1.20;0.30;;;;;;;;;;5008787;28;20574;-85
2023/01/13 09:29:25;;;;;;;0.40;0.20;;;;;;;;;;5015203;28;20033;-85
2023/01/13 09:31:51;;;;;;;1.55;0.40;;;;;;;;;;5014598;28;20053;-86
2023/01/13 09:35:19;;;;;;;0.55;0.20;;;;;;;;;;5031504;28;20497;-85
2023/01/13 09:37:13;;;;;;;0.93;0.30;;;;;;;;;;5014301;28;20084;-87
2023/01/13 09:39:41;;;;;;;1.63;0.38;;;;;;;;;;5014056;28;20144;-86
2023/01/13 09:45:31;;;;;;;1.75;0.30;;;;;;;;;;5035570;28;20092;-86
2023/01/13 09:48:00;;;;;;;2.08;0.30;;;;;;;;;;5040952;28;20036;-87
2023/01/13 09:50:40;;;;;;;1.85;0.50;;;;;;;;;;5047956;28;20990;-86
2023/01/13 09:53:13;;;;;;;2.17;0.40;;;;;;;;;;5040089;28;20036;-85
2023/01/13 09:55:38;;;;;;;2.05;0.30;;;;;;;;;;5008093;28;20075;-85
2023/01/13 09:58:20;;;;;;;0.70;0.30;;;;;;;;;;5020799;28;20064;-89
2023/01/13 10:01:13;;;;;;;1.10;0.38;;;;;;;;;;5017427;28;20531;-85
2023/01/13 10:03:39;;;;;;;0.77;0.30;;;;;;;;;;5020360;28;20037;-86
2023/01/13 10:06:12;;;;;;;0.88;0.30;;;;;;;;;;5010793;28;20095;-87
2023/01/13 10:08:39;;;;;;;1.33;0.30;;;;;;;;;;5009779;28;20035;-86
2023/01/13 10:13:59;;;;;;;0.50;0.20;;;;;;;;;;5055800;28;20056;-84
2023/01/13 10:16:41;;;;;;;1.13;0.40;;;;;;;;;;5025780;28;20044;-85
2023/01/13 10:19:14;;;;;;;1.27;0.32;;;;;;;;;;5020303;28;20399;-87
2023/01/13 10:21:42;;;;;;;1.05;0.30;;;;;;;;;;5048180;28;20044;-86
2023/01/13 10:24:13;;;;;;;4.15;0.70;;;;;;;;;;5024245;28;20037;-87
2023/01/13 10:26:50;;;;;;;2.08;0.40;;;;;;;;;;5042596;28;20037;-88
2023/01/13 10:29:24;;;;;;;1.13;0.32;;;;;;;;;;5025586;28;21206;-88
2023/01/13 10:31:53;;;;;;;0.77;0.30;;;;;;;;;;5032249;28;20043;-86
2023/01/13 10:34:20;;;;;;;1.30;0.30;;;;;;;;;;5012272;28;20120;-85
2023/01/13 10:36:58;;;;;;;2.15;0.40;;;;;;;;;;5011988;28;20051;-85
2023/01/13 10:39:24;;;;;;;0.57;0.22;;;;;;;;;;5024143;28;20458;-85
2023/01/13 10:41:59;;;;;;;0.77;0.30;;;;;;;;;;5000297;28;20118;-85
2023/01/13 10:44:25;;;;;;;2.35;0.30;;;;;;;;;;5016211;28;20526;-84
2023/01/13 10:46:53;;;;;;;1.48;0.25;;;;;;;;;;5017933;28;20037;-84
2023/01/13 10:49:35;;;;;;;1.83;0.40;;;;;;;;;;5002904;28;20037;-85
2023/01/13 10:52:02;;;;;;;0.88;0.30;;;;;;;;;;5025070;28;20116;-84
2023/01/13 10:54:28;;;;;;;1.08;0.32;;;;;;;;;;5017682;28;20073;-84
2023/01/13 10:57:18;;;;;;;0.68;0.20;;;;;;;;;;5026633;28;20044;-85
2023/01/13 10:59:43;;;;;;;1.08;0.30;;;;;;;;;;5014559;28;20488;-84
2023/01/13 11:02:28;;;;;;;1.20;0.20;;;;;;;;;;5008410;28;20052;-84
2023/01/13 11:04:53;;;;;;;2.22;0.50;;;;;;;;;;5057071;28;20052;-81
2023/01/13 11:07:59;;;;;;;0.25;0.20;;;;;;;;;;5016286;28;20030;-83
2023/01/13 11:10:26;;;;;;;2.50;0.75;;;;;;;;;;4987235;28;20428;-83
2023/01/13 11:13:07;;;;;;;1.77;0.50;;;;;;;;;;5023269;28;20053;-82
2023/01/13 11:15:54;;;;;;;1.40;0.40;;;;;;;;;;5029605;28;20587;-83
2023/01/13 11:18:50;;;;;;;1.75;0.40;;;;;;;;;;5008403;28;20542;-84
2023/01/13 11:21:27;;;;;;;1.95;0.20;;;;;;;;;;5017071;28;20041;-86
2023/01/13 11:24:19;;;;;;;0.75;0.28;;;;;;;;;;5020330;28;20100;-84
2023/01/13 11:26:54;;;;;;;1.13;0.38;;;;;;;;;;5011838;28;20033;-84
2023/01/13 11:29:29;;;;;;;2.65;1.20;;;;;;;;;;5026923;28;20028;-83
2023/01/13 11:32:04;;;;;;;2.28;0.30;;;;;;;;;;5004874;28;20056;-83
2023/01/13 11:34:34;;;;;;;1.63;0.38;;;;;;;;;;5008603;28;20083;-84
2023/01/13 11:37:02;;;;;;;0.75;0.28;;;;;;;;;;5028163;28;20124;-85
2023/01/13 11:39:33;;;;;;;0.70;0.28;;;;;;;;;;5037717;28;20130;-84
2023/01/13 11:45:05;;;;;;;3.42;0.63;;;;;;;;;;5024503;28;20404;-82
2023/01/13 11:47:31;;;;;;;1.38;0.50;;;;;;;;;;5025944;28;20029;-82
2023/01/13 11:49:57;;;;;;;2.35;0.30;;;;;;;;;;5009872;28;20504;-82
2023/01/13 11:53:06;;;;;;;2.13;0.38;;;;;;;;;;5029761;28;20029;-82
2023/01/13 11:55:44;;;;;;;1.30;0.30;;;;;;;;;;5011105;28;20151;-82
2023/01/13 11:58:19;;;;;;;1.20;0.30;;;;;;;;;;5024662;28;20052;-81
2023/01/13 12:01:04;;;;;;;2.28;0.98;;;;;;;;;;5027823;28;20025;-85
2023/01/13 12:03:39;;;;;;;2.47;0.57;;;;;;;;;;5010927;28;20064;-83
2023/01/13 12:06:26;;;;;;;2.55;0.70;;;;;;;;;;5060725;28;20033;-85
2023/01/13 12:09:04;;;;;;;2.25;0.40;;;;;;;;;;5005678;28;20047;-85
2023/01/13 12:15:01;;;;;;;1.98;0.40;;;;;;;;;;5044047;28;20603;-82
2023/01/13 12:17:54;;;;;;;2.35;0.55;;;;;;;;;;5025793;28;20403;-82
2023/01/13 12:20:42;;;;;;;2.03;0.50;;;;;;;;;;5026384;28;20041;-84
2023/01/13 12:23:26;;;;;;;2.70;0.63;;;;;;;;;;5026369;28;20067;-85
2023/01/13 12:26:06;;;;;;;2.13;0.35;;;;;;;;;;5013255;28;20041;-83
2023/01/13 12:28:53;;;;;;;2.13;0.40;;;;;;;;;;5009616;28;20087;-84
2023/01/13 12:31:20;;;;;;;2.38;0.50;;;;;;;;;;5009089;28;20043;-83
2023/01/13 12:34:04;;;;;;;2.55;0.40;;;;;;;;;;5044190;28;20048;-83
2023/01/13 12:37:00;;;;;;;1.23;0.30;;;;;;;;;;5026686;28;20157;-84
2023/01/13 12:39:47;;;;;;;4.05;0.60;;;;;;;;;;5028195;28;20033;-84
2023/01/13 12:45:08;;;;;;;3.90;0.70;;;;;;;;;;5045019;28;20048;-84
2023/01/13 12:47:45;;;;;;;2.53;0.68;;;;;;;;;;5044315;28;20244;-83
2023/01/13 12:50:22;;;;;;;1.95;0.40;;;;;;;;;;5008308;28;20041;-84
2023/01/13 12:52:55;;;;;;;1.50;0.40;;;;;;;;;;5042769;28;20493;-82
2023/01/13 12:55:23;;;;;;;4.22;0.70;;;;;;;;;;5047867;28;20041;-84
2023/01/13 12:57:58;;;;;;;;;;;;;;;;;;5009622;28;20399;-84
2023/01/13 13:00:50;;;;;;;1.40;0.43;;;;;;;;;;5019549;28;19924;-86
2023/01/13 13:03:29;;;;;;;4.15;0.70;;;;;;;;;;5029989;28;20229;-83
2023/01/13 13:06:15;;;;;;;2.75;0.60;;;;;;;;;;5007338;28;20719;-82
2023/01/13 13:08:43;;;;;;;4.38;0.50;;;;;;;;;;5042047;28;20055;-82
2023/01/13 13:14:40;;;;;;;4.60;0.73;;;;;;;;;;4989933;28;20085;-84
2023/01/13 13:17:27;;;;;;;1.05;0.38;;;;;;;;;;5034998;28;20120;-84
2023/01/13 13:19:54;;;;;;;5.85;0.70;;;;;;;;;;5054608;28;20037;-84
2023/01/13 13:22:36;;;;;;;3.10;0.50;;;;;;;;;;5027581;28;20044;-87
2023/01/13 13:25:01;;;;;;;2.60;0.55;;;;;;;;;;5030851;28;20048;-85
2023/01/13 13:27:59;;;;;;;5.68;0.50;;;;;;;;;;5024320;28;20037;-86
2023/01/13 13:30:26;;;;;;;2.72;0.60;;;;;;;;;;5034002;28;20103;-86
2023/01/13 13:33:04;;;;;;;3.17;0.68;;;;;;;;;;5023010;28;20041;-84
2023/01/13 13:35:50;;;;;;;5.97;0.60;;;;;;;;;;5026087;28;20438;-84
2023/01/13 13:47:09;;;;;;;2.70;0.68;;;;;;;;;;5029959;28;20087;-85
2023/01/13 13:49:48;;;;;;;4.22;0.68;;;;;;;;;;5035424;28;20391;-84
2023/01/13 13:52:21;;;;;;;3.67;0.77;;;;;;;;;;5009811;28;20041;-84
2023/01/13 13:54:50;;;;;;;4.88;0.80;;;;;;;;;;5040202;28;20379;-85
2023/01/13 13:57:20;;;;;;;2.83;0.60;;;;;;;;;;5044485;28;20799;-85
2023/01/13 13:59:52;;;;;;;3.60;0.70;;;;;;;;;;5026484;28;20569;-85
2023/01/13 14:02:23;;;;;;;2.70;0.70;;;;;;;;;;5027943;28;20056;-86
2023/01/13 14:04:48;;;;;;;2.65;0.65;;;;;;;;;;5045795;28;20411;-85
2023/01/13 14:07:22;;;;;;;4.95;0.60;;;;;;;;;;5002055;28;20029;-85
2023/01/13 14:09:55;;;;;;;2.08;0.50;;;;;;;;;;5024560;28;20492;-85
2023/01/13 14:12:25;;;;;;;2.63;0.50;;;;;;;;;;5055045;28;20410;-84
2023/01/13 14:14:53;;;;;;;3.17;0.80;;;;;;;;;;5033096;28;20139;-84
2023/01/13 14:17:26;;;;;;;4.75;0.90;;;;;;;;;;5033801;28;20162;-88
2023/01/13 14:20:09;;;;;;;1.75;0.60;;;;;;;;;;5013234;28;20771;-86
2023/01/13 14:22:34;;;;;;;2.35;0.70;;;;;;;;;;5046259;28;20036;-85
2023/01/13 14:25:00;;;;;;;2.88;0.93;;;;;;;;;;5004467;28;20381;-84
2023/01/13 14:27:28;;;;;;;3.78;0.75;;;;;;;;;;5029065;28;20111;-85
2023/01/13 14:29:55;;;;;;;3.92;0.82;;;;;;;;;;5005747;28;20443;-87
2023/01/13 14:32:21;;;;;;;4.43;0.70;;;;;;;;;;5025966;28;20036;-86
2023/01/13 14:34:47;;;;;;;3.50;0.80;;;;;;;;;;5035558;28;20039;-85
2023/01/13 14:37:22;;;;;;;3.78;0.75;;;;;;;;;;5037553;28;20271;-85
2023/01/13 14:39:47;;;;;;;4.65;0.70;;;;;;;;;;5019983;28;20029;-85
2023/01/13 14:42:13;;;;;;;2.25;0.60;;;;;;;;;;5011127;28;20751;-85
2023/01/13 14:44:43;;;;;;;2.13;0.60;;;;;;;;;;5010252;28;20033;-84
2023/01/13 14:47:32;;;;;;;4.20;0.70;;;;;;;;;;5041361;28;20041;-84
2023/01/13 14:50:09;;;;;;;2.15;0.52;;;;;;;;;;5029657;28;20044;-84
2023/01/13 14:52:47;;;;;;;1.50;0.63;;;;;;;;;;5029505;28;20041;-84
2023/01/13 14:55:42;;;;;;;2.92;0.65;;;;;;;;;;5029569;28;20045;-85
2023/01/13 14:58:24;;;;;;;4.97;0.80;;;;;;;;;;4997122;28;20037;-83
2023/01/13 15:00:50;;;;;;;4.55;0.70;;;;;;;;;;5020144;28;20110;-85
2023/01/13 15:03:19;;;;;;;2.70;0.60;;;;;;;;;;5027432;28;20041;-85
2023/01/13 15:05:50;;;;;;;5.32;1.30;;;;;;;;;;5031085;28;20036;-85
2023/01/13 15:08:25;;;;;;;2.97;0.75;;;;;;;;;;5025234;28;20124;-85
2023/01/13 15:10:58;;;;;;;3.08;0.85;;;;;;;;;;5021783;28;20574;-83
2023/01/13 15:13:45;;;;;;;3.30;0.68;;;;;;;;;;5010597;28;20120;-81
2023/01/13 15:16:24;;;;;;;4.00;0.60;;;;;;;;;;4991245;28;20377;-85
2023/01/13 15:18:50;;;;;;;3.00;0.68;;;;;;;;;;5018481;28;20034;-85
2023/01/13 15:21:20;;;;;;;3.50;0.70;;;;;;;;;;5022033;28;20108;-85
2023/01/13 15:23:46;;;;;;;2.20;0.60;;;;;;;;;;5009721;28;20669;-84
2023/01/13 15:26:17;;;;;;;4.35;0.82;;;;;;;;;;5020506;28;20037;-85
2023/01/13 15:28:43;;;;;;;4.15;1.00;;;;;;;;;;4991679;28;20034;-83
2023/01/13 15:31:08;;;;;;;2.25;0.60;;;;;;;;;;5006911;28;20038;-83
2023/01/13 15:33:34;;;;;;;1.77;0.47;;;;;;;;;;5032736;28;20041;-83
2023/01/13 15:36:00;;;;;;;4.75;0.90;;;;;;;;;;5001319;28;20168;-82
2023/01/13 15:38:26;;;;;;;2.80;0.90;;;;;;;;;;5001017;28;20038;-83
2023/01/13 15:40:52;;;;;;;3.65;0.75;;;;;;;;;;5015674;28;20927;-84
2023/01/13 15:46:39;;;;;;;5.15;1.02;;;;;;;;;;5005098;28;20545;-83
2023/01/13 15:49:38;;;;;;;2.58;0.60;;;;;;;;;;5002987;28;20061;-83
2023/01/13 15:52:18;;;;;;;2.90;0.60;;;;;;;;;;5000240;28;20041;-82
2023/01/13 15:54:44;;;;;;;2.58;1.08;;;;;;;;;;4988547;28;20034;-81
2023/01/13 15:57:21;;;;;;;1.50;0.52;;;;;;;;;;5032163;28;20042;-82
2023/01/13 15:59:47;;;;;;;;;;;;;;;;;;5014225;28;20038;-81
2023/01/13 16:02:17;;;;;;;3.28;0.70;;;;;;;;;;4989867;28;19924;-82
2023/01/13 16:04:42;;;;;;;3.53;0.70;;;;;;;;;;5020093;28;20063;-81
2023/01/13 16:07:12;;;;;;;3.60;0.60;;;;;;;;;;5031371;28;20038;-81
2023/01/13 16:09:37;;;;;;;2.38;0.70;;;;;;;;;;4982496;28;20504;-81
2023/01/13 16:12:03;;;;;;;3.13;0.70;;;;;;;;;;4983201;28;20042;-82
2023/01/13 16:14:28;;;;;;;3.38;0.60;;;;;;;;;;5025064;28;20558;-82
2023/01/13 16:16:54;;;;;;;3.42;0.70;;;;;;;;;;5012734;28;20037;-82
2023/01/13 16:19:19;;;;;;;2.95;0.77;;;;;;;;;;5021280;28;20396;-82